Impacts TAF Board
For situational awareness. Not to be used for flight planning purposes.
IDs:

KPHX - Phoenix/Sky Harbor, AZ, US

Issued at 0540 UTC 22 Oct 2018
Updated at 0554 UTC 22 Oct 2018
Potential Impact None Slight Moderate High
Time0551Z 22/06Z 22/07Z 22/08Z 22/09Z 22/10Z 22/11Z 22/12Z 22/13Z 22/14Z 22/15Z 22/16Z 22/17Z 22/18Z>>
Type OBS PRVL PRVL PRVL PRVL PRVL PRVL PRVL PRVL PRVL PRVL PRVL PRVL PRVL
VIS 10 >6 >6 >6 >6 >6 >6 >6 >6 >6 >6 >6 >6 >6
CIG -- -- -- -- -- -- -- 70 70 70 70 70 70 --
Cover SCT SCT SCT SCT SCT SCT SCT BKN BKN BKN BKN BKN BKN SCT
FltCat VFR VFR VFR VFR VFR VFR VFR VFR VFR VFR VFR VFR VFR VFR
WX -- -- -- -- -- -- -- VCSH VCSH VCSH VCSH VCSH VCSH --
WDir 100 90 90 90 90 90 90 90 90 90 90 90 90 120
WSpd 8 9 9 9 9 9 9 10 10 10 10 10 10 10
WGst -- -- -- -- -- -- -- -- -- -- -- -- -- --
Raw TAF
KPHX 220540Z 2206/2312 09009KT P6SM SCT070
  FM221200 09010KT P6SM VCSH BKN070
  FM221800 12010KT P6SM SCT060
  FM230100 01006KT P6SM SCT070
  FM230400 11005KT P6SM SCT070 BKN250


Raw METAR
KPHX 220551Z 10008KT 10SM FEW090 SCT250 24/14 A2987 RMK AO2 SLP096 T02440139 10306 20244 51009
KPHX 220451Z 07008KT 10SM FEW090 SCT250 25/15 A2986 RMK AO2 SLP096 T02500150
KPHX 220351Z 13007KT 10SM FEW090 SCT120 SCT250 26/14 A2985 RMK AO2 SLP092 OCNL LTGIC DSNT E CB DSNT E T02560144
KPHX 220251Z COR 08008KT 10SM SCT090CB SCT120 BKN250 27/13 A2984 RMK AO2 SLP089 FRQ LTGIC DSNT SE CB E MOV N AND DSNT SE T02720128 53006

METAR Board
Radar Display
Forecast Discussion
For situational awareness. Not to be used for flight planning purposes.